createdAt,value
2024-04-22T00:00:13.779Z,0.00
2024-04-22T00:01:13.842Z,0.00
2024-04-22T00:02:13.790Z,0.00
2024-04-22T00:03:13.779Z,0.00
2024-04-22T00:04:13.870Z,0.00
2024-04-22T00:05:13.793Z,0.00
2024-04-22T00:06:13.733Z,0.00
2024-04-22T00:07:13.757Z,0.00
2024-04-22T00:08:13.697Z,0.00
2024-04-22T00:09:13.694Z,0.00
2024-04-22T00:10:13.773Z,0.00
2024-04-22T00:11:13.720Z,0.00
2024-04-22T00:12:13.842Z,0.00
2024-04-22T00:13:13.678Z,0.00
2024-04-22T00:14:13.635Z,0.00
2024-04-22T00:15:13.629Z,0.00
2024-04-22T00:16:13.658Z,0.00
2024-04-22T00:17:13.615Z,0.00
2024-04-22T00:18:13.661Z,0.00
2024-04-22T00:19:13.650Z,0.00
2024-04-22T00:20:13.596Z,0.00
2024-04-22T00:21:13.589Z,0.00
2024-04-22T00:22:13.640Z,0.00
2024-04-22T00:23:13.548Z,0.00
2024-04-22T00:24:13.526Z,0.00
2024-04-22T00:25:13.550Z,0.00
2024-04-22T00:26:13.513Z,0.00
2024-04-22T00:27:13.498Z,0.00
2024-04-22T00:28:13.523Z,0.00
2024-04-22T00:29:13.478Z,0.00
2024-04-22T00:30:13.480Z,0.00
2024-04-22T00:31:13.497Z,0.00
2024-04-22T00:32:13.456Z,0.00
2024-04-22T00:33:13.537Z,0.00
2024-04-22T00:34:13.468Z,0.00
2024-04-22T00:35:13.408Z,0.00
2024-04-22T00:36:13.402Z,0.00
2024-04-22T00:37:13.425Z,0.00
2024-04-22T00:38:13.385Z,0.00
2024-04-22T00:39:13.427Z,0.00
2024-04-22T00:40:13.465Z,0.00
2024-04-22T00:41:13.376Z,0.00
2024-04-22T00:42:13.353Z,0.00
2024-04-22T00:43:13.388Z,0.00
2024-04-22T00:44:13.339Z,0.00
2024-04-22T00:45:13.304Z,0.00
2024-04-22T00:46:13.347Z,0.00
2024-04-22T00:47:13.320Z,0.00
2024-04-22T00:48:13.281Z,0.00
2024-04-22T00:49:13.291Z,0.00
2024-04-22T00:50:13.249Z,0.00
2024-04-22T00:51:13.280Z,0.00
2024-04-22T00:52:13.287Z,0.00
2024-04-22T00:53:13.225Z,0.00
2024-04-22T00:54:13.208Z,0.00
2024-04-22T00:55:13.240Z,0.00
2024-04-22T00:56:13.182Z,0.00
2024-04-22T00:57:13.189Z,0.00
2024-04-22T00:58:13.211Z,0.00
2024-04-22T00:59:13.158Z,0.00
2024-04-22T01:00:13.148Z,0.00
2024-04-22T01:01:13.151Z,0.00
2024-04-22T01:02:13.131Z,0.00
2024-04-22T01:03:13.154Z,0.00
2024-04-22T01:04:13.307Z,0.00
2024-04-22T01:05:13.159Z,0.00
2024-04-22T01:06:13.085Z,0.00
2024-04-22T01:07:13.121Z,0.00
2024-04-22T01:08:13.110Z,0.00
2024-04-22T01:09:13.058Z,0.00
2024-04-22T01:10:13.192Z,0.00
2024-04-22T01:11:13.055Z,0.00
2024-04-22T01:12:13.029Z,0.00
2024-04-22T01:13:13.111Z,0.00
2024-04-22T01:14:12.999Z,0.00
2024-04-22T01:15:13.003Z,0.00
2024-04-22T01:16:13.022Z,0.00
2024-04-22T01:17:12.987Z,0.00
2024-04-22T01:18:12.964Z,0.00
2024-04-22T01:19:12.998Z,0.00
2024-04-22T01:20:12.978Z,0.00
2024-04-22T01:21:12.949Z,0.00
2024-04-22T01:22:12.969Z,0.00
2024-04-22T01:23:12.906Z,0.00
2024-04-22T01:24:12.888Z,0.00
2024-04-22T01:25:12.942Z,0.00
2024-04-22T01:26:12.886Z,0.00
2024-04-22T01:27:12.863Z,0.00
2024-04-22T01:28:12.870Z,0.00
2024-04-22T01:29:12.860Z,0.00
2024-04-22T01:30:12.832Z,0.00
2024-04-22T01:31:12.833Z,0.00
2024-04-22T01:32:12.915Z,0.00
2024-04-22T01:33:12.894Z,0.00
2024-04-22T01:34:12.816Z,0.00
2024-04-22T01:35:12.765Z,0.00
2024-04-22T01:36:12.762Z,0.00
2024-04-22T01:37:12.794Z,0.00
2024-04-22T01:38:12.737Z,0.00
2024-04-22T01:39:12.724Z,0.00
2024-04-22T01:40:12.737Z,0.00
2024-04-22T01:41:12.710Z,0.00
2024-04-22T01:42:12.713Z,0.00
2024-04-22T01:43:12.720Z,0.00
2024-04-22T01:44:12.677Z,0.00
2024-04-22T01:45:12.664Z,0.00
2024-04-22T01:46:12.705Z,0.00
2024-04-22T01:47:12.668Z,0.00
2024-04-22T01:48:12.636Z,0.00
2024-04-22T01:49:12.689Z,0.00
2024-04-22T01:50:12.639Z,0.00
2024-04-22T01:51:12.621Z,0.00
2024-04-22T01:52:12.601Z,0.00
2024-04-22T01:53:12.577Z,0.00
2024-04-22T01:54:12.603Z,0.00
2024-04-22T01:55:12.584Z,0.00
2024-04-22T01:56:12.543Z,0.00
2024-04-22T01:57:12.524Z,0.00
2024-04-22T01:58:12.571Z,0.00
2024-04-22T01:59:12.519Z,0.00
2024-04-22T02:00:12.510Z,0.00
2024-04-22T02:01:12.567Z,0.00
2024-04-22T02:02:12.522Z,0.00
2024-04-22T02:03:12.483Z,0.00
2024-04-22T02:04:12.502Z,0.00
2024-04-22T02:05:12.478Z,0.00
2024-04-22T02:06:12.438Z,0.00
2024-04-22T02:07:12.440Z,0.00
2024-04-22T02:08:12.418Z,0.00
2024-04-22T02:09:12.403Z,0.00
2024-04-22T02:10:21.511Z,0.00
2024-04-22T02:11:12.434Z,0.00
2024-04-22T02:12:12.377Z,0.00
2024-04-22T02:13:12.379Z,0.00
2024-04-22T02:14:12.361Z,0.00
2024-04-22T02:15:12.340Z,0.00
2024-04-22T02:16:12.367Z,0.00
2024-04-22T02:17:12.336Z,0.00
2024-04-22T02:18:12.359Z,0.00
2024-04-22T02:19:12.331Z,0.00
2024-04-22T02:20:12.311Z,0.00
2024-04-22T02:21:12.297Z,0.00
2024-04-22T02:22:12.289Z,0.00
2024-04-22T02:23:12.262Z,0.00
2024-04-22T02:24:12.244Z,0.00
2024-04-22T02:25:12.272Z,0.00
2024-04-22T02:26:12.227Z,0.00
2024-04-22T02:27:12.241Z,0.00
2024-04-22T02:28:12.230Z,0.00
2024-04-22T02:29:12.183Z,0.00
2024-04-22T02:30:12.182Z,0.00
2024-04-22T02:31:12.204Z,0.00
2024-04-22T02:32:12.180Z,0.00
2024-04-22T02:33:12.306Z,0.00
2024-04-22T02:34:12.175Z,0.00
2024-04-22T02:35:12.123Z,0.00
2024-04-22T02:36:12.128Z,0.00
2024-04-22T02:37:12.132Z,0.00
2024-04-22T02:38:12.116Z,0.00
2024-04-22T02:39:12.082Z,0.00
2024-04-22T02:40:12.176Z,0.00
2024-04-22T02:41:12.057Z,0.00
2024-04-22T02:42:12.045Z,0.00
2024-04-22T02:43:12.110Z,0.00
2024-04-22T02:44:12.079Z,0.00
2024-04-22T02:45:12.038Z,0.00
2024-04-22T02:46:12.052Z,0.00
2024-04-22T02:47:12.048Z,0.00
2024-04-22T02:48:12.032Z,0.00
2024-04-22T02:49:12.016Z,0.00
2024-04-22T02:50:11.981Z,0.00
2024-04-22T02:51:12.071Z,0.00
2024-04-22T02:52:11.985Z,0.00
2024-04-22T02:53:11.937Z,0.00
2024-04-22T02:54:11.926Z,0.00
2024-04-22T02:55:11.949Z,0.00
2024-04-22T02:56:11.901Z,0.00
2024-04-22T02:57:11.993Z,0.00
2024-04-22T02:58:11.902Z,0.00
2024-04-22T02:59:11.864Z,0.00
2024-04-22T03:00:11.872Z,0.00
2024-04-22T03:01:11.951Z,0.00
2024-04-22T03:02:11.862Z,0.00
2024-04-22T03:03:11.821Z,0.00
2024-04-22T03:04:11.850Z,0.00
2024-04-22T03:05:11.811Z,0.00
2024-04-22T03:06:11.792Z,0.00
2024-04-22T03:07:11.808Z,0.00
2024-04-22T03:08:11.797Z,0.00
2024-04-22T03:09:11.795Z,0.00
2024-04-22T03:10:11.750Z,0.00
2024-04-22T03:11:11.749Z,0.00
2024-04-22T03:12:11.772Z,0.00
2024-04-22T03:13:11.788Z,0.00
2024-04-22T03:14:11.726Z,0.00
2024-04-22T03:15:11.698Z,0.00
2024-04-22T03:16:11.731Z,0.00
2024-04-22T03:17:11.704Z,0.00
2024-04-22T03:18:11.760Z,0.00
2024-04-22T03:19:11.670Z,0.00
2024-04-22T03:20:11.644Z,0.00
2024-04-22T03:21:11.652Z,0.00
2024-04-22T03:22:11.661Z,0.00
2024-04-22T03:23:11.629Z,0.00
2024-04-22T03:24:11.617Z,0.00
2024-04-22T03:25:11.598Z,0.00
2024-04-22T03:26:11.581Z,0.00
2024-04-22T03:27:11.569Z,0.00
2024-04-22T03:28:11.569Z,0.00
2024-04-22T03:29:11.563Z,0.00
2024-04-22T03:30:11.542Z,0.00
2024-04-22T03:31:11.566Z,0.00
2024-04-22T03:32:11.594Z,0.00
2024-04-22T03:33:11.577Z,0.00
2024-04-22T03:34:11.522Z,0.00
2024-04-22T03:35:11.482Z,0.00
2024-04-22T03:36:11.466Z,0.00
2024-04-22T03:37:11.481Z,0.00
2024-04-22T03:38:11.445Z,0.00
2024-04-22T03:39:11.445Z,0.00
2024-04-22T03:40:11.470Z,0.00
2024-04-22T03:41:11.427Z,0.00
2024-04-22T03:42:11.417Z,0.00
2024-04-22T03:43:11.445Z,0.00
2024-04-22T03:44:11.422Z,0.00
2024-04-22T03:45:11.374Z,0.00
2024-04-22T03:46:11.442Z,0.00
2024-04-22T03:47:11.405Z,0.00
2024-04-22T03:48:11.440Z,0.00
2024-04-22T03:49:11.359Z,0.00
2024-04-22T03:50:11.329Z,0.00
2024-04-22T03:51:11.316Z,0.00
2024-04-22T03:52:11.323Z,0.00
2024-04-22T03:53:11.291Z,0.00
2024-04-22T03:54:11.281Z,0.00
2024-04-22T03:55:11.294Z,0.00
2024-04-22T03:56:11.257Z,0.00
2024-04-22T03:57:11.254Z,0.00
2024-04-22T03:58:11.238Z,0.00
2024-04-22T03:59:11.224Z,0.00
2024-04-22T04:00:11.214Z,0.00
2024-04-22T04:01:11.287Z,0.00
2024-04-22T04:02:11.198Z,0.00
2024-04-22T04:03:11.180Z,0.00
2024-04-22T04:04:11.262Z,0.00
2024-04-22T04:05:11.243Z,0.00
2024-04-22T04:06:11.156Z,0.00
2024-04-22T04:07:11.183Z,0.00
2024-04-22T04:08:11.118Z,0.00
2024-04-22T04:09:11.119Z,0.00
2024-04-22T04:10:11.209Z,0.00
2024-04-22T04:11:11.138Z,0.00
2024-04-22T04:12:11.075Z,0.00
2024-04-22T04:13:11.114Z,0.00
2024-04-22T04:14:11.069Z,0.00
2024-04-22T04:15:11.050Z,0.00
2024-04-22T04:16:11.071Z,0.00
2024-04-22T04:17:11.081Z,0.00
2024-04-22T04:18:11.038Z,0.00
2024-04-22T04:19:11.050Z,0.00
2024-04-22T04:20:10.995Z,0.00
2024-04-22T04:21:10.982Z,0.00
2024-04-22T04:22:11.001Z,0.00
2024-04-22T04:23:10.984Z,0.00
2024-04-22T04:24:10.943Z,0.00
2024-04-22T04:25:10.956Z,0.00
2024-04-22T04:26:10.922Z,5.62
2024-04-22T04:27:10.923Z,5.62
2024-04-22T04:28:10.950Z,5.62
2024-04-22T04:29:10.899Z,5.62
2024-04-22T04:30:10.926Z,5.62
2024-04-22T04:31:10.908Z,5.62
2024-04-22T04:32:10.987Z,5.62
2024-04-22T04:33:10.979Z,5.62
2024-04-22T04:34:10.868Z,5.62
2024-04-22T04:35:10.831Z,5.62
2024-04-22T04:36:10.816Z,5.62
2024-04-22T04:37:10.819Z,5.62
2024-04-22T04:38:10.788Z,5.62
2024-04-22T04:39:10.792Z,5.62
2024-04-22T04:40:10.802Z,5.62
2024-04-22T04:41:10.769Z,5.62
2024-04-22T04:42:10.756Z,5.62
2024-04-22T04:43:10.789Z,5.62
2024-04-22T04:44:10.737Z,5.62
2024-04-22T04:45:10.737Z,5.62
2024-04-22T04:46:10.775Z,5.62
2024-04-22T04:47:10.715Z,5.62
2024-04-22T04:48:10.712Z,5.62
2024-04-22T04:49:10.709Z,5.62
2024-04-22T04:50:10.671Z,5.62
2024-04-22T04:51:10.683Z,5.62
2024-04-22T04:52:10.705Z,11.25
2024-04-22T04:53:10.650Z,11.25
2024-04-22T04:54:10.621Z,11.25
2024-04-22T04:55:10.664Z,11.25
2024-04-22T04:56:10.617Z,11.25
2024-04-22T04:57:10.601Z,11.25
2024-04-22T04:58:10.626Z,11.25
2024-04-22T04:59:10.577Z,11.25
2024-04-22T05:00:10.569Z,11.25
2024-04-22T05:01:10.644Z,11.25
2024-04-22T05:02:10.638Z,11.25
2024-04-22T05:03:10.602Z,11.25
2024-04-22T05:04:10.537Z,11.25
2024-04-22T05:05:10.509Z,11.25
2024-04-22T05:06:10.596Z,11.25
2024-04-22T05:07:13.083Z,11.25
2024-04-22T05:08:10.504Z,11.25
2024-04-22T05:09:10.475Z,11.25
2024-04-22T05:10:10.500Z,11.25
2024-04-22T05:11:10.441Z,11.25
2024-04-22T05:12:10.443Z,11.25
2024-04-22T05:13:10.477Z,11.25
2024-04-22T05:14:10.450Z,11.25
2024-04-22T05:15:10.415Z,11.25
2024-04-22T05:16:10.413Z,11.25
2024-04-22T05:17:10.411Z,11.25
2024-04-22T05:18:10.406Z,11.25
2024-04-22T05:19:10.418Z,11.25
2024-04-22T05:20:10.348Z,16.88
2024-04-22T05:21:10.944Z,16.88
2024-04-22T05:22:10.391Z,16.88
2024-04-22T05:23:10.325Z,16.88
2024-04-22T05:24:10.328Z,16.88
2024-04-22T05:25:10.350Z,16.88
2024-04-22T05:26:10.317Z,16.88
2024-04-22T05:27:10.284Z,16.88
2024-04-22T05:28:10.317Z,16.88
2024-04-22T05:29:10.259Z,16.88
2024-04-22T05:30:10.245Z,16.88
2024-04-22T05:31:10.305Z,16.88
2024-04-22T05:32:10.243Z,16.88
2024-04-22T05:33:10.253Z,16.88
2024-04-22T05:34:10.212Z,16.88
2024-04-22T05:35:10.197Z,16.88
2024-04-22T05:36:10.179Z,16.88
2024-04-22T05:37:10.187Z,16.88
2024-04-22T05:38:10.165Z,16.88
2024-04-22T05:39:10.166Z,16.88
2024-04-22T05:40:10.138Z,16.88
2024-04-22T05:41:10.129Z,16.88
2024-04-22T05:42:10.153Z,16.88
2024-04-22T05:43:10.132Z,16.88
2024-04-22T05:44:10.094Z,16.88
2024-04-22T05:45:10.088Z,16.88
2024-04-22T05:46:10.330Z,16.88
2024-04-22T05:47:10.067Z,16.88
2024-04-22T05:48:10.188Z,16.88
2024-04-22T05:49:10.064Z,16.88
2024-04-22T05:50:10.024Z,16.88
2024-04-22T05:51:10.027Z,22.50
2024-04-22T05:52:10.036Z,22.50
2024-04-22T05:53:10.038Z,22.50
2024-04-22T05:54:09.978Z,22.50
2024-04-22T05:55:10.210Z,22.50
2024-04-22T05:56:09.957Z,16.88
2024-04-22T05:57:09.958Z,22.50
2024-04-22T05:58:09.991Z,22.50
2024-04-22T05:59:09.947Z,22.50
2024-04-22T06:00:09.938Z,22.50
2024-04-22T06:01:09.959Z,22.50
2024-04-22T06:02:10.019Z,22.50
2024-04-22T06:03:10.014Z,22.50
2024-04-22T06:04:10.006Z,22.50
2024-04-22T06:05:09.876Z,22.50
2024-04-22T06:06:09.848Z,22.50
2024-04-22T06:07:09.853Z,22.50
2024-04-22T06:08:09.828Z,22.50
2024-04-22T06:09:09.888Z,22.50
2024-04-22T06:10:09.849Z,22.50
2024-04-22T06:11:09.845Z,22.50
2024-04-22T06:12:17.499Z,22.50
2024-04-22T06:13:09.826Z,22.50
2024-04-22T06:14:09.950Z,22.50
2024-04-22T06:15:09.776Z,22.50
2024-04-22T06:16:09.854Z,22.50
2024-04-22T06:17:09.868Z,22.50
2024-04-22T06:18:09.752Z,22.50
2024-04-22T06:19:09.758Z,22.50
2024-04-22T06:20:09.718Z,22.50
2024-04-22T06:21:09.690Z,22.50
2024-04-22T06:22:09.708Z,28.12
2024-04-22T06:23:09.706Z,28.12
2024-04-22T06:24:09.682Z,28.12
2024-04-22T06:25:09.726Z,28.12
2024-04-22T06:26:09.633Z,28.12
2024-04-22T06:27:09.648Z,28.12
2024-04-22T06:28:09.662Z,28.12
2024-04-22T06:29:09.613Z,28.12
2024-04-22T06:30:09.594Z,28.12
2024-04-22T06:31:11.638Z,28.12
2024-04-22T06:32:09.674Z,28.12
2024-04-22T06:33:09.582Z,28.12
2024-04-22T06:34:09.624Z,28.12
2024-04-22T06:35:09.566Z,28.12
2024-04-22T06:36:09.541Z,28.12
2024-04-22T06:37:09.573Z,28.12
2024-04-22T06:38:09.507Z,28.12
2024-04-22T06:39:09.512Z,28.12
2024-04-22T06:40:09.506Z,28.12
2024-04-22T06:41:09.489Z,28.12
2024-04-22T06:42:09.474Z,28.12
2024-04-22T06:43:09.455Z,28.12
2024-04-22T06:44:09.453Z,28.12
2024-04-22T06:45:09.426Z,28.12
2024-04-22T06:46:09.564Z,28.12
2024-04-22T06:47:09.457Z,28.12
2024-04-22T06:48:09.460Z,28.12
2024-04-22T06:49:09.483Z,28.12
2024-04-22T06:50:09.380Z,28.12
2024-04-22T06:51:09.381Z,28.12
2024-04-22T06:52:09.461Z,28.12
2024-04-22T06:53:09.340Z,33.75
2024-04-22T06:54:09.326Z,33.75
2024-04-22T06:55:09.456Z,33.75
2024-04-22T06:56:09.303Z,28.12
2024-04-22T06:57:09.328Z,28.12
2024-04-22T06:58:09.298Z,33.75
2024-04-22T06:59:09.282Z,33.75
2024-04-22T07:00:09.259Z,33.75
2024-04-22T07:01:12.814Z,33.75
2024-04-22T07:02:11.838Z,33.75
2024-04-22T07:03:09.883Z,33.75
2024-04-22T07:04:09.291Z,33.75
2024-04-22T07:05:09.316Z,28.12
2024-04-22T07:06:09.200Z,33.75
2024-04-22T07:07:09.199Z,33.75
2024-04-22T07:08:09.819Z,33.75
2024-04-22T07:09:09.202Z,33.75
2024-04-22T07:10:09.173Z,33.75
2024-04-22T07:11:09.184Z,33.75
2024-04-22T07:12:09.153Z,39.38
2024-04-22T07:13:09.165Z,33.75
2024-04-22T07:14:09.114Z,39.38
2024-04-22T07:15:09.134Z,45.00
2024-04-22T07:16:09.091Z,39.38
2024-04-22T07:17:09.186Z,45.00
2024-04-22T07:18:09.139Z,50.62
2024-04-22T07:19:09.092Z,50.62
2024-04-22T07:20:09.050Z,39.38
2024-04-22T07:21:09.040Z,39.38
2024-04-22T07:22:09.033Z,39.38
2024-04-22T07:23:09.061Z,39.38
2024-04-22T07:24:09.048Z,39.38
2024-04-22T07:25:09.009Z,39.38
2024-04-22T07:26:09.006Z,45.00
2024-04-22T07:27:15.937Z,39.38
2024-04-22T07:28:08.964Z,39.38
2024-04-22T07:29:08.996Z,39.38
2024-04-22T07:30:08.942Z,39.38
2024-04-22T07:31:08.934Z,39.38
2024-04-22T07:32:08.940Z,39.38
2024-04-22T07:33:09.036Z,39.38
2024-04-22T07:34:08.897Z,45.00
2024-04-22T07:35:08.916Z,45.00
2024-04-22T07:36:08.878Z,45.00
2024-04-22T07:37:08.879Z,45.00
2024-04-22T07:38:08.880Z,45.00
2024-04-22T07:39:08.856Z,45.00
2024-04-22T07:40:08.874Z,45.00
2024-04-22T07:41:08.850Z,45.00
2024-04-22T07:42:08.828Z,45.00
2024-04-22T07:43:08.809Z,45.00
2024-04-22T07:44:08.847Z,45.00
2024-04-22T07:45:08.783Z,45.00
2024-04-22T07:46:08.783Z,45.00
2024-04-22T07:47:08.810Z,45.00
2024-04-22T07:48:08.806Z,45.00
2024-04-22T07:49:08.767Z,45.00
2024-04-22T07:50:08.720Z,45.00
2024-04-22T07:51:08.718Z,45.00
2024-04-22T07:52:08.713Z,45.00
2024-04-22T07:53:08.752Z,45.00
2024-04-22T07:54:08.692Z,45.00
2024-04-22T07:55:08.681Z,45.00
2024-04-22T07:56:08.654Z,45.00
2024-04-22T07:57:08.662Z,45.00
2024-04-22T07:58:08.679Z,45.00
2024-04-22T07:59:08.659Z,45.00
2024-04-22T08:00:08.646Z,45.00
2024-04-22T08:01:08.647Z,45.00
2024-04-22T08:02:08.596Z,45.00
2024-04-22T08:03:08.651Z,45.00
2024-04-22T08:04:08.672Z,45.00
2024-04-22T08:05:08.613Z,56.25
2024-04-22T08:06:08.570Z,45.00
2024-04-22T08:07:08.571Z,45.00
2024-04-22T08:08:08.560Z,45.00
2024-04-22T08:09:08.534Z,45.00
2024-04-22T08:10:08.613Z,45.00
2024-04-22T08:11:08.550Z,50.62
2024-04-22T08:12:08.488Z,50.62
2024-04-22T08:13:08.503Z,50.62
2024-04-22T08:14:08.477Z,56.25
2024-04-22T08:15:08.471Z,50.62
2024-04-22T08:16:08.447Z,50.62
2024-04-22T08:17:08.567Z,45.00
2024-04-22T08:18:08.470Z,45.00
2024-04-22T08:19:08.404Z,45.00
2024-04-22T08:20:08.437Z,45.00
2024-04-22T08:21:08.395Z,45.00
2024-04-22T08:22:08.370Z,45.00
2024-04-22T08:23:08.485Z,45.00
2024-04-22T08:24:08.359Z,45.00
2024-04-22T08:25:08.354Z,45.00
2024-04-22T08:26:08.331Z,45.00
2024-04-22T08:27:08.320Z,45.00
2024-04-22T08:28:08.355Z,45.00
2024-04-22T08:29:08.308Z,45.00
2024-04-22T08:30:08.291Z,45.00
2024-04-22T08:31:08.281Z,39.38
2024-04-22T08:32:08.295Z,39.38
2024-04-22T08:33:08.485Z,39.38
2024-04-22T08:34:08.371Z,39.38
2024-04-22T08:35:08.245Z,39.38
2024-04-22T08:36:08.234Z,39.38
2024-04-22T08:37:08.218Z,39.38
2024-04-22T08:38:08.223Z,39.38
2024-04-22T08:39:08.219Z,45.00
2024-04-22T08:40:08.194Z,45.00
2024-04-22T08:41:08.222Z,45.00
2024-04-22T08:42:08.154Z,50.62
2024-04-22T08:43:08.151Z,45.00
2024-04-22T08:44:08.180Z,50.62
2024-04-22T08:45:08.169Z,50.62
2024-04-22T08:46:08.124Z,50.62
2024-04-22T08:47:08.146Z,50.62
2024-04-22T08:48:08.202Z,45.00
2024-04-22T08:49:08.082Z,39.38
2024-04-22T08:50:08.119Z,33.75
2024-04-22T08:51:08.067Z,33.75
2024-04-22T08:52:08.052Z,28.12
2024-04-22T08:53:08.134Z,28.12
2024-04-22T08:54:08.030Z,22.50
2024-04-22T08:55:08.049Z,22.50
2024-04-22T08:56:08.008Z,22.50
2024-04-22T08:57:08.015Z,22.50
2024-04-22T08:58:07.996Z,16.88
2024-04-22T08:59:11.758Z,16.88
2024-04-22T09:00:07.987Z,16.88
2024-04-22T09:01:08.014Z,16.88
2024-04-22T09:02:07.963Z,16.88
2024-04-22T09:03:08.954Z,11.25
2024-04-22T09:04:07.946Z,11.25
2024-04-22T09:05:09.304Z,11.25
2024-04-22T09:06:08.137Z,16.88
2024-04-22T09:07:07.981Z,16.88
2024-04-22T09:08:07.987Z,16.88
2024-04-22T09:09:08.887Z,16.88
2024-04-22T09:10:34.883Z,16.88
2024-04-22T09:11:39.649Z,16.88
2024-04-22T09:12:10.299Z,22.50
2024-04-22T09:13:08.191Z,28.12
2024-04-22T09:14:08.122Z,33.75
2024-04-22T09:15:08.055Z,39.38
2024-04-22T09:16:07.913Z,45.00
2024-04-22T09:17:07.840Z,50.62
2024-04-22T09:18:07.988Z,50.62
2024-04-22T09:19:07.771Z,50.62
2024-04-22T09:20:08.078Z,50.62
2024-04-22T09:21:08.474Z,50.62
2024-04-22T09:22:07.787Z,56.25
2024-04-22T09:23:07.848Z,56.25
2024-04-22T09:24:07.781Z,50.62
2024-04-22T09:25:07.706Z,50.62
2024-04-22T09:26:07.947Z,56.25
2024-04-22T09:27:07.698Z,61.88
2024-04-22T09:28:07.726Z,61.88
2024-04-22T09:29:07.677Z,61.88
2024-04-22T09:30:07.980Z,61.88
2024-04-22T09:31:07.637Z,56.25
2024-04-22T09:32:07.752Z,50.62
2024-04-22T09:33:07.724Z,45.00
2024-04-22T09:34:07.714Z,45.00
2024-04-22T09:35:12.784Z,39.38
2024-04-22T09:36:07.710Z,33.75
2024-04-22T09:37:07.649Z,28.12
2024-04-22T09:38:07.640Z,28.12
2024-04-22T09:39:07.744Z,22.50
2024-04-22T09:40:07.563Z,16.88
2024-04-22T09:41:07.636Z,16.88
2024-04-22T09:42:07.571Z,16.88
2024-04-22T09:43:07.518Z,11.25
2024-04-22T09:44:11.823Z,11.25
2024-04-22T09:45:07.475Z,16.88
2024-04-22T09:46:07.493Z,16.88
2024-04-22T09:47:07.593Z,16.88
2024-04-22T09:48:07.726Z,22.50
2024-04-22T09:49:07.699Z,22.50
2024-04-22T09:50:07.498Z,33.75
2024-04-22T09:51:07.537Z,39.38
2024-04-22T09:52:07.415Z,45.00
2024-04-22T09:53:07.441Z,50.62
2024-04-22T09:54:07.521Z,50.62
2024-04-22T09:55:07.438Z,50.62
2024-04-22T09:56:07.412Z,56.25
2024-04-22T09:57:07.409Z,61.88
2024-04-22T09:58:07.346Z,61.88
2024-04-22T09:59:07.566Z,67.50
2024-04-22T10:00:07.314Z,67.50
2024-04-22T10:01:07.359Z,67.50
2024-04-22T10:02:07.547Z,67.50
2024-04-22T10:03:07.384Z,67.50
2024-04-22T10:04:07.340Z,67.50
2024-04-22T10:05:07.543Z,73.12
2024-04-22T10:06:07.514Z,73.12
2024-04-22T10:07:07.391Z,73.12
2024-04-22T10:08:07.329Z,73.12
2024-04-22T10:09:07.223Z,73.12
2024-04-22T10:10:07.252Z,73.12
2024-04-22T10:11:07.506Z,73.12
2024-04-22T10:12:07.342Z,73.12
2024-04-22T10:13:07.204Z,67.50
2024-04-22T10:14:07.285Z,67.50
2024-04-22T10:15:07.162Z,61.88
2024-04-22T10:16:07.240Z,56.25
2024-04-22T10:17:07.185Z,50.62
2024-04-22T10:18:09.327Z,45.00
2024-04-22T10:19:07.225Z,45.00
2024-04-22T10:20:07.335Z,39.38
2024-04-22T10:21:07.080Z,33.75
2024-04-22T10:22:07.128Z,28.12
2024-04-22T10:23:07.072Z,28.12
2024-04-22T10:24:07.063Z,22.50
2024-04-22T10:25:07.385Z,22.50
2024-04-22T10:26:07.031Z,22.50
2024-04-22T10:27:11.558Z,22.50
2024-04-22T10:28:07.015Z,22.50
2024-04-22T10:29:07.038Z,16.88
2024-04-22T10:30:08.993Z,16.88
2024-04-22T10:31:06.986Z,16.88
2024-04-22T10:32:07.026Z,16.88
2024-04-22T10:33:07.113Z,16.88
2024-04-22T10:34:06.993Z,16.88
2024-04-22T10:35:06.950Z,16.88
2024-04-22T10:36:06.922Z,16.88
2024-04-22T10:37:06.936Z,16.88
2024-04-22T10:38:06.910Z,16.88
2024-04-22T10:39:06.893Z,22.50
2024-04-22T10:40:06.879Z,22.50
2024-04-22T10:41:06.871Z,28.12
2024-04-22T10:42:06.855Z,33.75
2024-04-22T10:43:06.842Z,39.38
2024-04-22T10:44:06.872Z,39.38
2024-04-22T10:45:06.823Z,45.00
2024-04-22T10:46:06.903Z,50.62
2024-04-22T10:47:06.816Z,56.25
2024-04-22T10:48:12.498Z,56.25
2024-04-22T10:49:06.923Z,56.25
2024-04-22T10:50:07.713Z,56.25
2024-04-22T10:51:06.920Z,61.88
2024-04-22T10:52:06.756Z,61.88
2024-04-22T10:53:07.642Z,61.88
2024-04-22T10:54:06.755Z,67.50
2024-04-22T10:55:07.068Z,67.50
2024-04-22T10:56:07.010Z,67.50
2024-04-22T10:57:06.702Z,67.50
2024-04-22T10:58:06.683Z,73.12
2024-04-22T10:59:06.750Z,73.12
2024-04-22T11:00:06.700Z,78.75
2024-04-22T11:01:07.246Z,84.38
2024-04-22T11:02:06.809Z,84.38
2024-04-22T11:03:06.974Z,84.38
2024-04-22T11:04:06.793Z,84.38
2024-04-22T11:05:06.763Z,84.38
2024-04-22T11:06:06.683Z,78.75
2024-04-22T11:07:06.636Z,73.12
2024-04-22T11:08:06.622Z,67.50
2024-04-22T11:09:06.632Z,67.50
2024-04-22T11:10:06.598Z,67.50
2024-04-22T11:11:06.671Z,67.50
2024-04-22T11:12:06.614Z,73.12
2024-04-22T11:13:06.539Z,73.12
2024-04-22T11:14:06.538Z,67.50
2024-04-22T11:15:06.558Z,67.50
2024-04-22T11:16:06.531Z,67.50
2024-04-22T11:17:06.700Z,73.12
2024-04-22T11:18:06.481Z,78.75
2024-04-22T11:19:07.386Z,78.75
2024-04-22T11:20:06.446Z,78.75
2024-04-22T11:21:06.462Z,78.75
2024-04-22T11:22:06.428Z,73.12
2024-04-22T11:23:06.424Z,61.88
2024-04-22T11:24:06.419Z,56.25
2024-04-22T11:25:06.638Z,50.62
2024-04-22T11:26:06.402Z,45.00
2024-04-22T11:27:06.433Z,39.38
2024-04-22T11:28:06.379Z,33.75
2024-04-22T11:29:06.339Z,28.12
2024-04-22T11:30:06.357Z,28.12
2024-04-22T11:31:06.320Z,22.50
2024-04-22T11:32:06.448Z,28.12
2024-04-22T11:33:06.440Z,28.12
2024-04-22T11:34:06.311Z,28.12
2024-04-22T11:35:06.289Z,28.12
2024-04-22T11:36:06.339Z,33.75
2024-04-22T11:37:06.278Z,33.75
2024-04-22T11:38:06.269Z,33.75
2024-04-22T11:39:06.335Z,39.38
2024-04-22T11:40:06.235Z,39.38
2024-04-22T11:41:06.224Z,39.38
2024-04-22T11:42:06.239Z,45.00
2024-04-22T11:43:06.284Z,45.00
2024-04-22T11:44:06.178Z,45.00
2024-04-22T11:45:07.071Z,50.62
2024-04-22T11:46:06.192Z,50.62
2024-04-22T11:47:06.317Z,50.62
2024-04-22T11:48:06.267Z,50.62
2024-04-22T11:49:06.135Z,50.62
2024-04-22T11:50:06.112Z,50.62
2024-04-22T11:51:06.140Z,50.62
2024-04-22T11:52:06.090Z,50.62
2024-04-22T11:53:14.449Z,50.62
2024-04-22T11:54:06.137Z,56.25
2024-04-22T11:55:06.068Z,61.88
2024-04-22T11:56:08.824Z,61.88
2024-04-22T11:57:06.042Z,61.88
2024-04-22T11:58:06.030Z,61.88
2024-04-22T11:59:06.040Z,61.88
2024-04-22T12:00:06.089Z,61.88
2024-04-22T12:01:06.035Z,61.88
2024-04-22T12:02:05.980Z,61.88
2024-04-22T12:03:05.970Z,61.88
2024-04-22T12:04:05.984Z,61.88
2024-04-22T12:05:06.034Z,56.25
2024-04-22T12:06:06.042Z,56.25
2024-04-22T12:07:05.937Z,56.25
2024-04-22T12:08:05.920Z,56.25
2024-04-22T12:09:07.674Z,56.25
2024-04-22T12:10:05.901Z,56.25
2024-04-22T12:11:05.920Z,56.25
2024-04-22T12:12:05.898Z,56.25
2024-04-22T12:13:05.869Z,61.88
2024-04-22T12:14:05.852Z,61.88
2024-04-22T12:15:06.661Z,61.88
2024-04-22T12:16:05.956Z,61.88
2024-04-22T12:17:06.005Z,61.88
2024-04-22T12:18:05.832Z,61.88
2024-04-22T12:19:05.810Z,61.88
2024-04-22T12:20:05.803Z,67.50
2024-04-22T12:21:06.074Z,67.50
2024-04-22T12:22:05.792Z,67.50
2024-04-22T12:23:05.757Z,67.50
2024-04-22T12:24:05.757Z,67.50
2024-04-22T12:25:05.743Z,61.88
2024-04-22T12:26:05.729Z,56.25
2024-04-22T12:27:07.180Z,50.62
2024-04-22T12:28:13.662Z,45.00
2024-04-22T12:29:05.751Z,45.00
2024-04-22T12:30:05.692Z,39.38
2024-04-22T12:31:05.674Z,39.38
2024-04-22T12:32:05.659Z,39.38
2024-04-22T12:33:05.715Z,39.38
2024-04-22T12:34:12.398Z,39.38
2024-04-22T12:35:05.657Z,45.00
2024-04-22T12:36:05.621Z,45.00
2024-04-22T12:37:05.608Z,50.62
2024-04-22T12:38:07.042Z,50.62
2024-04-22T12:39:05.613Z,56.25
2024-04-22T12:40:05.578Z,61.88
2024-04-22T12:41:05.563Z,73.12
2024-04-22T12:42:05.559Z,78.75
2024-04-22T12:43:05.553Z,84.38
2024-04-22T12:44:05.620Z,84.38
2024-04-22T12:45:05.530Z,78.75
2024-04-22T12:46:05.511Z,67.50
2024-04-22T12:47:05.499Z,56.25
2024-04-22T12:48:05.619Z,50.62
2024-04-22T12:49:05.486Z,45.00
2024-04-22T12:50:05.537Z,45.00
2024-04-22T12:51:05.451Z,45.00
2024-04-22T12:52:05.479Z,39.38
2024-04-22T12:53:05.430Z,33.75
2024-04-22T12:54:05.425Z,33.75
2024-04-22T12:55:05.938Z,28.12
2024-04-22T12:56:06.212Z,28.12
2024-04-22T12:57:05.425Z,28.12
2024-04-22T12:58:05.403Z,28.12
2024-04-22T12:59:05.466Z,33.75
2024-04-22T13:00:05.382Z,33.75
2024-04-22T13:01:06.175Z,33.75
2024-04-22T13:02:05.469Z,39.38